Time;durP1;ratioP1;P1;durP2;ratioP2;P2;SDS_P1;SDS_P2;PMS_P1;PMS_P2;Temp;Humidity;BMP_temperature;BMP_pressure;BME280_temperature;BME280_humidity;BME280_pressure;Samples;Min_cycle;Max_cycle;Signal;HPM_P1;HPM_P2
2022/10/08 00:01:00;;;;;;;52.42;42.22;;;9.40;99.90;;;;;;5035396;28;20053;-68
2022/10/08 00:03:30;;;;;;;48.45;39.25;;;9.50;99.90;;;;;;5035973;28;20111;-69
2022/10/08 00:05:59;;;;;;;47.30;38.25;;;9.40;99.90;;;;;;5047057;28;20135;-68
2022/10/08 00:08:28;;;;;;;48.75;36.90;;;9.50;99.90;;;;;;5054655;28;20049;-68
2022/10/08 00:10:57;;;;;;;47.30;38.22;;;9.40;99.90;;;;;;5055584;28;20043;-70
2022/10/08 00:13:28;;;;;;;51.78;40.28;;;9.40;99.90;;;;;;5036521;28;20479;-68
2022/10/08 00:15:55;;;;;;;63.70;44.90;;;9.40;99.90;;;;;;5049569;28;20115;-68
2022/10/08 00:18:23;;;;;;;61.25;45.60;;;9.30;99.90;;;;;;5054457;28;20516;-69
2022/10/08 00:20:50;;;;;;;64.82;48.17;;;9.30;99.90;;;;;;5055617;28;20052;-68
2022/10/08 00:23:18;;;;;;;63.08;46.63;;;9.30;99.90;;;;;;5053744;28;20041;-68
2022/10/08 00:25:46;;;;;;;65.47;48.03;;;9.20;99.90;;;;;;5052624;28;20044;-68
2022/10/08 00:28:13;;;;;;;64.00;45.75;;;9.10;99.90;;;;;;5036841;28;20144;-68
2022/10/08 00:30:42;;;;;;;59.90;42.08;;;9.10;99.90;;;;;;5048290;28;20045;-69
2022/10/08 00:33:11;;;;;;;62.63;41.83;;;9.10;99.90;;;;;;5042367;28;20584;-68
2022/10/08 00:35:39;;;;;;;67.65;42.65;;;9.00;99.90;;;;;;5055926;28;20056;-68
2022/10/08 00:38:07;;;;;;;62.85;43.40;;;9.00;99.90;;;;;;5055581;28;20445;-69
2022/10/08 00:40:42;;;;;;;56.72;38.88;;;9.00;99.90;;;;;;5054861;28;20037;-68
2022/10/08 00:43:14;;;;;;;51.88;36.25;;;8.90;99.90;;;;;;5056053;28;20044;-69
2022/10/08 00:45:45;;;;;;;58.70;37.00;;;8.90;99.90;;;;;;5050985;28;20116;-68
2022/10/08 00:48:16;;;;;;;53.50;36.63;;;8.90;99.90;;;;;;5043995;28;20064;-68
2022/10/08 00:50:43;;;;;;;53.75;37.75;;;8.80;99.90;;;;;;5055378;28;20064;-70
2022/10/08 00:53:11;;;;;;;60.85;42.90;;;8.80;99.90;;;;;;5053400;28;20416;-68
2022/10/08 00:55:40;;;;;;;61.20;44.00;;;8.90;99.90;;;;;;5054305;28;20076;-69
2022/10/08 00:58:12;;;;;;;63.70;44.83;;;8.90;99.90;;;;;;5053583;28;20056;-68
2022/10/08 01:00:40;;;;;;;65.88;46.65;;;8.90;99.90;;;;;;5055600;28;20068;-68
2022/10/08 01:03:08;;;;;;;59.75;45.22;;;8.80;99.90;;;;;;5054812;28;20119;-68
2022/10/08 01:05:46;;;;;;;60.58;44.58;;;8.80;99.90;;;;;;5053834;28;20044;-69
2022/10/08 01:08:18;;;;;;;61.92;44.95;;;8.90;99.90;;;;;;5055027;28;20037;-69
2022/10/08 01:10:53;;;;;;;60.25;43.45;;;8.80;99.90;;;;;;5054944;28;20037;-69
2022/10/08 01:13:32;;;;;;;57.88;42.53;;;8.90;99.90;;;;;;5054780;28;20408;-69
2022/10/08 01:16:07;;;;;;;60.42;44.28;;;8.90;99.90;;;;;;5053441;28;20049;-68
2022/10/08 01:18:47;;;;;;;64.53;43.55;;;8.90;99.90;;;;;;5053386;28;20044;-70
2022/10/08 01:21:24;;;;;;;61.33;42.88;;;8.90;99.90;;;;;;5034986;28;20120;-69
2022/10/08 01:24:09;;;;;;;52.45;38.40;;;8.90;99.90;;;;;;5034652;28;20037;-68
2022/10/08 01:26:48;;;;;;;47.92;37.90;;;8.80;99.90;;;;;;5035000;28;20049;-68
2022/10/08 01:29:22;;;;;;;48.97;36.58;;;8.80;99.90;;;;;;5034427;28;20123;-69
2022/10/08 01:31:54;;;;;;;50.90;39.58;;;8.80;99.90;;;;;;5034905;28;20049;-68
2022/10/08 01:34:27;;;;;;;46.58;36.83;;;8.80;99.90;;;;;;5043184;28;20047;-69
2022/10/08 01:36:56;;;;;;;50.33;37.13;;;8.80;99.90;;;;;;5054484;28;20409;-68
2022/10/08 01:39:29;;;;;;;58.88;36.80;;;8.70;99.90;;;;;;5054146;28;20044;-69
2022/10/08 01:41:58;;;;;;;57.78;36.85;;;8.60;99.90;;;;;;5053395;28;20136;-69
2022/10/08 01:44:31;;;;;;;56.70;37.10;;;8.60;99.90;;;;;;5054443;28;20095;-69
2022/10/08 01:47:01;;;;;;;54.58;37.97;;;8.60;99.90;;;;;;5053477;28;20094;-68
2022/10/08 01:49:33;;;;;;;52.80;38.55;;;8.60;99.90;;;;;;5052719;28;20037;-69
2022/10/08 01:52:06;;;;;;;47.83;37.08;;;8.60;99.90;;;;;;5054161;28;20496;-70
2022/10/08 01:54:36;;;;;;;48.67;36.92;;;8.60;99.90;;;;;;5054076;28;20049;-69
2022/10/08 01:57:05;;;;;;;46.92;36.92;;;8.60;99.90;;;;;;5053182;28;20077;-69
2022/10/08 01:59:40;;;;;;;52.85;39.40;;;8.60;99.90;;;;;;5054354;28;20123;-69
2022/10/08 02:02:14;;;;;;;53.17;38.20;;;8.60;99.90;;;;;;5054583;28;20120;-68
2022/10/08 02:04:41;;;;;;;53.20;40.45;;;8.60;99.90;;;;;;5052486;28;20139;-69
2022/10/08 02:07:10;;;;;;;51.72;39.63;;;8.60;99.90;;;;;;5052801;28;20423;-69
2022/10/08 02:09:40;;;;;;;47.97;38.72;;;8.50;99.90;;;;;;5052459;28;20106;-69
2022/10/08 02:12:08;;;;;;;48.90;38.80;;;8.50;99.90;;;;;;5053898;28;20071;-68
2022/10/08 02:14:40;;;;;;;45.88;36.45;;;8.50;99.90;;;;;;5054295;28;20041;-68
2022/10/08 02:17:22;;;;;;;45.05;35.28;;;8.50;99.90;;;;;;5054278;28;20095;-68
2022/10/08 02:19:55;;;;;;;46.38;34.60;;;8.50;99.90;;;;;;5053883;28;20492;-68
2022/10/08 02:22:26;;;;;;;43.63;33.60;;;8.50;99.90;;;;;;5052136;28;20523;-69
2022/10/08 02:25:00;;;;;;;49.67;36.72;;;8.50;99.90;;;;;;5053866;28;20480;-68
2022/10/08 02:27:38;;;;;;;43.92;33.63;;;8.50;99.90;;;;;;5054228;28;20485;-68
2022/10/08 02:30:10;;;;;;;46.88;35.70;;;8.50;99.90;;;;;;5053806;28;20063;-68
2022/10/08 02:32:45;;;;;;;54.03;37.65;;;8.50;99.90;;;;;;5051857;28;20141;-68
2022/10/08 02:35:18;;;;;;;58.90;38.55;;;8.50;99.90;;;;;;5052319;28;20056;-68
2022/10/08 02:37:49;;;;;;;45.55;35.53;;;8.60;99.90;;;;;;5052058;28;20041;-69
2022/10/08 02:40:18;;;;;;;46.22;34.05;;;8.60;99.90;;;;;;5051976;28;20465;-68
2022/10/08 02:42:52;;;;;;;42.58;32.13;;;8.50;99.90;;;;;;5053263;28;20045;-67
2022/10/08 02:45:24;;;;;;;40.08;29.10;;;8.40;99.90;;;;;;5053523;28;20075;-67
2022/10/08 02:47:59;;;;;;;37.70;29.30;;;8.40;99.90;;;;;;5053966;28;20032;-67
2022/10/08 02:50:29;;;;;;;39.03;28.23;;;8.40;99.90;;;;;;5052241;28;20507;-68
2022/10/08 02:52:57;;;;;;;36.50;29.05;;;8.40;99.90;;;;;;5051780;28;20076;-67
2022/10/08 02:55:33;;;;;;;43.30;32.78;;;8.40;99.90;;;;;;5051263;28;20049;-68
2022/10/08 02:58:01;;;;;;;;;;;8.30;99.90;;;;;;5051979;28;20067;-68
2022/10/08 03:00:35;;;;;;;45.22;31.80;;;8.30;99.90;;;;;;5053364;28;19927;-68
2022/10/08 03:03:09;;;;;;;53.17;35.10;;;8.30;99.90;;;;;;5052103;28;20048;-68
2022/10/08 03:05:38;;;;;;;44.17;33.58;;;8.20;99.90;;;;;;5052921;28;20045;-68
2022/10/08 03:08:07;;;;;;;43.80;32.65;;;8.20;99.90;;;;;;5053368;28;20103;-68
2022/10/08 03:10:38;;;;;;;45.45;32.35;;;8.20;99.90;;;;;;5057620;28;20129;-68
2022/10/08 03:13:06;;;;;;;38.65;28.85;;;8.20;99.90;;;;;;5055957;28;20041;-68
2022/10/08 03:15:36;;;;;;;35.50;28.45;;;8.10;99.90;;;;;;5058158;28;20045;-68
2022/10/08 03:18:08;;;;;;;35.85;29.23;;;8.10;99.90;;;;;;5058538;28;20111;-68
2022/10/08 03:20:41;;;;;;;37.83;28.30;;;8.10;99.90;;;;;;5057771;28;20071;-68
2022/10/08 03:23:09;;;;;;;35.97;27.55;;;8.00;99.90;;;;;;5055134;28;20053;-68
2022/10/08 03:25:36;;;;;;;35.75;28.60;;;8.00;99.90;;;;;;5056125;28;20049;-68
2022/10/08 03:28:04;;;;;;;34.08;27.02;;;7.90;99.90;;;;;;5056915;28;20508;-68
2022/10/08 03:30:31;;;;;;;32.55;25.40;;;7.80;99.90;;;;;;5057031;28;20041;-69
2022/10/08 03:33:00;;;;;;;31.20;23.77;;;7.80;99.90;;;;;;5055955;28;20049;-68
2022/10/08 03:35:27;;;;;;;30.95;24.85;;;7.70;99.90;;;;;;5057239;28;20090;-67
2022/10/08 03:37:54;;;;;;;31.73;24.92;;;7.70;99.90;;;;;;5055742;28;20041;-68
2022/10/08 03:40:22;;;;;;;27.02;23.30;;;7.60;99.90;;;;;;5056479;28;20450;-69
2022/10/08 03:42:51;;;;;;;34.70;26.80;;;7.60;99.90;;;;;;5056458;28;20488;-68
2022/10/08 03:45:18;;;;;;;38.63;27.38;;;7.60;99.90;;;;;;5056698;28;20116;-68
2022/10/08 03:47:51;;;;;;;40.08;27.77;;;7.50;99.90;;;;;;5056351;28;20033;-67
2022/10/08 03:50:20;;;;;;;44.70;29.65;;;7.50;99.90;;;;;;5056379;28;20033;-68
2022/10/08 03:52:47;;;;;;;42.67;29.77;;;7.50;99.90;;;;;;5056244;28;20049;-68
2022/10/08 03:55:15;;;;;;;42.50;31.35;;;7.50;99.90;;;;;;5056613;28;20041;-68
2022/10/08 03:57:42;;;;;;;44.08;31.17;;;7.50;99.90;;;;;;5055930;28;20057;-67
2022/10/08 04:00:11;;;;;;;37.92;27.75;;;7.60;99.90;;;;;;5056702;28;20041;-67
2022/10/08 04:02:38;;;;;;;38.95;27.67;;;7.50;99.90;;;;;;5055178;28;20405;-68
2022/10/08 04:05:06;;;;;;;46.25;29.92;;;7.50;99.90;;;;;;5054918;28;20053;-67
2022/10/08 04:07:35;;;;;;;46.85;29.83;;;7.50;99.90;;;;;;5054840;28;20036;-68
2022/10/08 04:10:03;;;;;;;47.72;27.50;;;7.50;99.90;;;;;;5056431;28;20495;-68
2022/10/08 04:12:31;;;;;;;41.67;28.67;;;7.50;99.90;;;;;;5052467;28;20131;-69
2022/10/08 04:14:58;;;;;;;39.40;30.13;;;7.50;99.90;;;;;;5055366;28;20047;-69
2022/10/08 04:17:25;;;;;;;47.45;32.60;;;7.50;99.90;;;;;;5053032;28;20046;-69
2022/10/08 04:19:52;;;;;;;38.83;31.33;;;7.60;99.90;;;;;;5034104;28;20053;-68
2022/10/08 04:22:20;;;;;;;37.00;31.40;;;7.50;99.90;;;;;;5045948;28;20072;-68
2022/10/08 04:24:49;;;;;;;33.33;29.48;;;7.50;99.90;;;;;;5055506;28;20052;-68
2022/10/08 04:27:16;;;;;;;37.67;29.33;;;7.40;99.90;;;;;;5054603;28;20074;-68
2022/10/08 04:29:43;;;;;;;33.03;27.00;;;7.40;99.90;;;;;;5054636;28;20393;-69
2022/10/08 04:32:11;;;;;;;34.45;26.27;;;7.40;99.90;;;;;;5053407;28;20045;-69
2022/10/08 04:34:38;;;;;;;41.08;26.92;;;7.40;99.90;;;;;;5053654;28;20052;-69
2022/10/08 04:37:06;;;;;;;31.90;24.17;;;7.40;99.90;;;;;;5054745;28;20037;-69
2022/10/08 04:39:33;;;;;;;33.60;24.80;;;7.40;99.90;;;;;;5045680;28;20393;-68
2022/10/08 04:42:02;;;;;;;31.00;24.50;;;7.40;99.90;;;;;;5053963;28;20053;-68
2022/10/08 04:44:29;;;;;;;35.50;25.95;;;7.40;99.90;;;;;;5054885;28;20040;-68
2022/10/08 04:46:56;;;;;;;32.25;25.77;;;7.40;99.90;;;;;;5053459;28;20041;-69
2022/10/08 04:49:24;;;;;;;35.58;25.20;;;7.40;99.90;;;;;;5043896;28;20037;-69
2022/10/08 04:51:52;;;;;;;35.08;25.42;;;7.40;99.90;;;;;;5036658;28;20195;-69
2022/10/08 04:54:19;;;;;;;32.03;24.60;;;7.40;99.90;;;;;;5055241;28;20072;-68
2022/10/08 04:56:46;;;;;;;32.35;24.52;;;7.40;99.90;;;;;;5048866;28;20053;-68
2022/10/08 04:59:15;;;;;;;34.28;25.30;;;7.40;99.90;;;;;;5040015;28;20037;-68
2022/10/08 05:01:42;;;;;;;37.67;25.08;;;7.40;99.90;;;;;;5054211;28;20041;-69
2022/10/08 05:04:10;;;;;;;46.97;26.05;;;7.40;99.90;;;;;;5053434;28;20049;-69
2022/10/08 05:06:37;;;;;;;34.42;24.77;;;7.40;99.90;;;;;;5054979;28;20041;-68
2022/10/08 05:09:04;;;;;;;33.00;24.70;;;7.50;99.90;;;;;;5053121;28;20048;-69
2022/10/08 05:11:32;;;;;;;33.92;24.30;;;7.50;99.90;;;;;;5052936;28;20424;-68
2022/10/08 05:14:00;;;;;;;29.30;22.65;;;7.50;99.90;;;;;;5054377;28;20451;-69
2022/10/08 05:16:29;;;;;;;30.17;23.20;;;7.50;99.90;;;;;;5054053;28;20040;-68
2022/10/08 05:18:57;;;;;;;33.05;25.35;;;7.40;99.90;;;;;;5053735;28;20079;-68
2022/10/08 05:21:26;;;;;;;39.35;26.20;;;7.40;99.90;;;;;;5053119;28;20093;-68
2022/10/08 05:23:58;;;;;;;39.42;28.38;;;7.40;99.90;;;;;;5052845;28;20139;-69
2022/10/08 05:26:28;;;;;;;39.78;28.15;;;7.40;99.90;;;;;;5040829;28;20051;-68
2022/10/08 05:28:57;;;;;;;36.50;28.23;;;7.50;99.90;;;;;;5047210;28;20038;-69
2022/10/08 05:31:27;;;;;;;36.70;28.05;;;7.50;99.90;;;;;;5042923;28;20048;-68
2022/10/08 05:33:56;;;;;;;39.25;27.45;;;7.60;99.90;;;;;;5052950;28;20080;-69
2022/10/08 05:36:26;;;;;;;47.20;29.48;;;7.60;99.90;;;;;;5051380;28;20139;-69
2022/10/08 05:38:55;;;;;;;39.42;28.77;;;7.70;99.90;;;;;;5039052;28;20095;-69
2022/10/08 05:41:24;;;;;;;50.50;28.70;;;7.70;99.90;;;;;;5033026;28;20420;-68
2022/10/08 05:43:53;;;;;;;39.75;27.02;;;7.90;99.90;;;;;;5052821;28;20061;-68
2022/10/08 05:46:21;;;;;;;40.33;25.65;;;7.90;99.90;;;;;;5038187;28;20045;-69
2022/10/08 05:48:52;;;;;;;32.40;25.35;;;8.00;99.90;;;;;;5053357;28;20033;-68
2022/10/08 05:51:21;;;;;;;31.15;25.35;;;8.00;99.90;;;;;;5053678;28;20416;-68
2022/10/08 05:53:50;;;;;;;49.20;26.90;;;8.10;99.90;;;;;;5052043;28;20098;-69
2022/10/08 05:56:20;;;;;;;35.97;27.70;;;8.10;99.90;;;;;;5053132;28;20132;-69
2022/10/08 05:58:48;;;;;;;45.78;31.83;;;8.20;99.90;;;;;;5048304;28;20469;-68
2022/10/08 06:01:18;;;;;;;36.95;28.35;;;8.30;99.90;;;;;;5053663;28;20063;-69
2022/10/08 06:03:50;;;;;;;38.97;27.98;;;8.40;99.90;;;;;;5049514;28;20041;-68
2022/10/08 06:06:17;;;;;;;42.40;26.40;;;8.40;99.90;;;;;;5051508;28;20045;-68
2022/10/08 06:08:46;;;;;;;40.28;27.67;;;8.50;99.90;;;;;;5039733;28;20037;-68
2022/10/08 06:11:14;;;;;;;37.33;26.70;;;8.60;99.90;;;;;;5033283;28;20041;-68
2022/10/08 06:13:42;;;;;;;37.80;26.30;;;8.70;99.90;;;;;;5040733;28;20043;-68
2022/10/08 06:16:11;;;;;;;31.20;24.55;;;8.80;99.90;;;;;;5053263;28;20069;-68
2022/10/08 06:18:40;;;;;;;30.92;23.52;;;9.10;99.90;;;;;;5048465;28;20099;-69
2022/10/08 06:21:09;;;;;;;31.90;23.95;;;9.30;99.90;;;;;;5034356;28;20041;-68
2022/10/08 06:23:37;;;;;;;32.00;24.73;;;9.50;99.90;;;;;;5052379;28;20081;-68
2022/10/08 06:26:08;;;;;;;30.10;22.85;;;9.70;99.90;;;;;;5049515;28;20049;-68
2022/10/08 06:28:37;;;;;;;30.25;21.67;;;9.90;99.90;;;;;;5048386;28;20048;-67
2022/10/08 06:31:05;;;;;;;36.72;22.08;;;10.00;99.90;;;;;;5052590;28;20037;-68
2022/10/08 06:33:32;;;;;;;26.63;21.00;;;10.20;99.90;;;;;;5048423;28;20087;-68
2022/10/08 06:36:04;;;;;;;31.48;21.45;;;10.60;99.90;;;;;;5053066;28;20056;-68
2022/10/08 06:38:31;;;;;;;28.90;21.23;;;10.90;99.90;;;;;;5052634;28;20552;-68
2022/10/08 06:40:58;;;;;;;25.73;20.20;;;11.20;99.90;;;;;;5053162;28;20485;-68
2022/10/08 06:43:27;;;;;;;26.77;18.75;;;11.50;99.90;;;;;;5052138;28;20099;-69
2022/10/08 06:45:55;;;;;;;23.70;18.17;;;11.80;99.90;;;;;;5050949;28;20052;-69
2022/10/08 06:48:23;;;;;;;23.65;18.38;;;12.10;99.90;;;;;;5053046;28;20484;-69
2022/10/08 06:50:58;;;;;;;34.58;19.50;;;12.30;99.90;;;;;;5051039;28;20055;-70
2022/10/08 06:53:26;;;;;;;21.23;17.48;;;12.40;99.90;;;;;;5051456;28;20156;-68
2022/10/08 06:55:57;;;;;;;27.55;18.48;;;12.60;99.90;;;;;;5053064;28;20554;-68
2022/10/08 06:58:24;;;;;;;29.48;18.25;;;12.90;99.90;;;;;;5053650;28;20041;-69
2022/10/08 07:01:03;;;;;;;28.15;20.33;;;13.00;99.90;;;;;;5039480;28;20041;-68
2022/10/08 07:03:30;;;;;;;29.42;20.50;;;12.90;99.90;;;;;;5031660;28;20116;-68
2022/10/08 07:06:00;;;;;;;33.65;21.02;;;12.90;99.90;;;;;;5032930;28;20076;-69
2022/10/08 07:08:28;;;;;;;26.45;20.73;;;13.00;99.90;;;;;;5033588;28;20049;-68
2022/10/08 07:10:55;;;;;;;26.75;20.52;;;13.30;99.90;;;;;;5033043;28;20111;-69
2022/10/08 07:13:23;;;;;;;23.77;19.52;;;13.50;99.90;;;;;;5035106;28;20038;-68
2022/10/08 07:15:50;;;;;;;24.88;19.52;;;13.80;99.90;;;;;;5052707;28;20103;-68
2022/10/08 07:18:19;;;;;;;29.25;19.63;;;14.00;99.90;;;;;;5052577;28;20036;-69
2022/10/08 07:20:55;;;;;;;27.70;20.15;;;14.20;99.90;;;;;;5053265;28;20049;-69
2022/10/08 07:23:23;;;;;;;38.08;21.65;;;14.30;99.90;;;;;;5052375;28;20559;-70
2022/10/08 07:25:56;;;;;;;31.95;21.33;;;14.40;99.90;;;;;;5052457;28;20045;-68
2022/10/08 07:28:23;;;;;;;35.10;22.08;;;14.60;99.90;;;;;;5050700;28;20049;-69
2022/10/08 07:30:50;;;;;;;31.42;20.23;;;14.80;99.90;;;;;;5050077;28;20100;-70
2022/10/08 07:33:19;;;;;;;30.65;21.92;;;14.90;99.90;;;;;;5050722;28;20112;-70
2022/10/08 07:35:47;;;;;;;34.30;21.98;;;14.90;99.90;;;;;;5032867;28;20520;-70
2022/10/08 07:38:17;;;;;;;30.25;21.40;;;15.00;99.90;;;;;;5049566;28;20040;-68
2022/10/08 07:40:45;;;;;;;32.63;22.90;;;15.10;99.90;;;;;;5052798;28;20048;-69
2022/10/08 07:43:12;;;;;;;49.63;24.58;;;15.30;99.90;;;;;;5052725;28;20076;-69
2022/10/08 07:45:44;;;;;;;35.75;22.10;;;15.40;99.90;;;;;;5052187;28;20369;-70
2022/10/08 07:48:12;;;;;;;33.95;21.92;;;15.60;99.90;;;;;;5053138;28;20073;-70
2022/10/08 07:50:41;;;;;;;25.02;19.98;;;15.70;99.90;;;;;;5051737;28;20045;-70
2022/10/08 07:53:08;;;;;;;28.48;18.88;;;16.00;99.90;;;;;;5050516;28;20531;-69
2022/10/08 07:55:35;;;;;;;23.13;18.95;;;16.20;99.90;;;;;;5055222;28;20041;-72
2022/10/08 07:58:03;;;;;;;27.10;19.50;;;16.10;99.90;;;;;;5056452;28;20049;-71
2022/10/08 08:00:30;;;;;;;27.77;19.77;;;15.90;99.90;;;;;;5055887;28;20041;-71
2022/10/08 08:02:58;;;;;;;30.92;19.30;;;16.00;99.90;;;;;;5056087;28;20055;-72
2022/10/08 08:05:25;;;;;;;26.38;19.10;;;16.10;99.90;;;;;;5056733;28;20040;-73
2022/10/08 08:07:54;;;;;;;22.65;17.73;;;16.30;99.90;;;;;;5056501;28;20099;-73
2022/10/08 08:10:21;;;;;;;23.67;16.05;;;16.50;99.90;;;;;;5055978;28;20090;-71
2022/10/08 08:12:49;;;;;;;24.58;16.05;;;16.70;99.90;;;;;;5056379;28;20467;-70
2022/10/08 08:15:16;;;;;;;28.65;16.08;;;16.70;99.90;;;;;;5056391;28;20443;-71
2022/10/08 08:17:43;;;;;;;23.00;16.65;;;16.80;99.90;;;;;;5059266;28;20102;-72
2022/10/08 08:20:11;;;;;;;19.08;15.35;;;16.80;99.90;;;;;;5061300;28;20094;-71
2022/10/08 08:22:38;;;;;;;25.02;16.45;;;16.90;99.90;;;;;;5068242;28;20048;-71
2022/10/08 08:25:08;;;;;;;21.38;13.70;;;16.90;99.90;;;;;;5061728;28;20047;-72
2022/10/08 08:27:35;;;;;;;22.48;16.52;;;17.00;99.90;;;;;;5059881;28;20052;-72
2022/10/08 08:30:02;;;;;;;28.55;20.45;;;17.10;99.90;;;;;;5056336;28;20045;-71
2022/10/08 08:32:30;;;;;;;28.45;20.80;;;17.30;99.90;;;;;;5059592;28;20047;-70
2022/10/08 08:34:58;;;;;;;20.83;15.15;;;17.30;99.90;;;;;;5060488;28;20471;-71
2022/10/08 08:37:25;;;;;;;24.42;17.60;;;17.30;99.90;;;;;;5058177;28;20063;-71
2022/10/08 08:39:52;;;;;;;23.17;17.83;;;17.30;99.90;;;;;;5072714;28;20290;-70
2022/10/08 08:42:38;;;;;;;27.55;19.00;;;17.30;99.90;;;;;;5057840;28;20139;-70
2022/10/08 08:45:18;;;;;;;24.05;18.38;;;17.40;99.90;;;;;;5051030;28;20447;-70
2022/10/08 08:47:53;;;;;;;29.63;20.90;;;17.50;99.90;;;;;;5048884;28;20091;-72
2022/10/08 08:50:26;;;;;;;27.70;20.55;;;17.60;99.90;;;;;;5053958;28;20136;-71
2022/10/08 08:52:54;;;;;;;27.80;21.08;;;17.60;99.90;;;;;;5054936;28;20067;-71
2022/10/08 08:55:32;;;;;;;29.33;21.98;;;17.70;99.90;;;;;;5053497;28;20045;-71
2022/10/08 08:58:08;;;;;;;29.63;22.73;;;17.80;99.90;;;;;;5054844;28;20057;-70
2022/10/08 09:00:40;;;;;;;32.85;23.98;;;17.90;99.90;;;;;;5054890;28;20045;-70
2022/10/08 09:03:16;;;;;;;33.22;24.63;;;17.90;99.90;;;;;;5054285;28;20033;-70
2022/10/08 09:05:47;;;;;;;36.25;29.23;;;18.00;99.90;;;;;;5034784;28;20038;-70
2022/10/08 09:08:19;;;;;;;30.48;24.58;;;18.10;99.90;;;;;;5051878;28;20048;-70
2022/10/08 09:10:52;;;;;;;34.50;25.77;;;18.10;99.90;;;;;;5052877;28;20103;-70
2022/10/08 09:13:24;;;;;;;35.28;25.90;;;18.20;99.90;;;;;;5053739;28;20484;-71
2022/10/08 09:15:54;;;;;;;43.25;27.15;;;18.30;99.90;;;;;;5054120;28;20395;-69
2022/10/08 09:18:21;;;;;;;33.72;25.52;;;18.40;99.90;;;;;;5053796;28;20045;-71
2022/10/08 09:20:49;;;;;;;36.38;24.65;;;18.40;99.90;;;;;;5054303;28;20037;-72
2022/10/08 09:23:20;;;;;;;39.40;26.17;;;18.40;99.90;;;;;;5052773;28;20045;-72
2022/10/08 09:25:53;;;;;;;35.47;28.20;;;18.50;99.90;;;;;;5053600;28;20045;-70
2022/10/08 09:28:43;;;;;;;43.05;29.13;;;18.50;99.90;;;;;;5053633;28;20099;-70
2022/10/08 09:31:21;;;;;;;32.42;25.02;;;18.60;99.90;;;;;;5042948;28;20045;-71
2022/10/08 09:34:01;;;;;;;26.52;22.13;;;18.60;99.90;;;;;;5053042;28;20065;-72
2022/10/08 09:36:38;;;;;;;27.77;22.52;;;18.60;99.90;;;;;;5053716;28;20037;-70
2022/10/08 09:39:16;;;;;;;22.73;17.23;;;18.70;99.90;;;;;;5053517;28;20041;-72
2022/10/08 09:41:44;;;;;;;24.33;17.40;;;18.80;99.90;;;;;;5043220;28;20040;-69
2022/10/08 09:44:16;;;;;;;31.48;18.92;;;18.90;99.90;;;;;;5055435;28;20049;-69
2022/10/08 09:46:44;;;;;;;25.17;19.17;;;18.90;99.90;;;;;;5054692;28;20040;-69
2022/10/08 09:49:30;;;;;;;31.42;21.02;;;19.10;99.90;;;;;;5048838;28;20428;-68
2022/10/08 09:52:00;;;;;;;22.87;18.90;;;19.20;99.90;;;;;;5053784;28;20396;-68
2022/10/08 09:54:34;;;;;;;25.55;17.65;;;19.30;99.90;;;;;;5053756;28;20059;-69
2022/10/08 09:57:02;;;;;;;23.73;17.40;;;19.40;99.90;;;;;;5053724;28;20107;-69
2022/10/08 09:59:38;;;;;;;27.75;17.98;;;19.50;99.90;;;;;;5053400;28;20091;-69
2022/10/08 10:02:22;;;;;;;24.63;18.25;;;19.60;99.90;;;;;;5053517;28;20049;-68
2022/10/08 10:04:54;;;;;;;21.33;16.13;;;19.60;99.90;;;;;;5053261;28;20045;-69
2022/10/08 10:07:22;;;;;;;25.67;19.70;;;19.70;99.90;;;;;;5053813;28;20045;-69
2022/10/08 10:09:53;;;;;;;26.73;18.00;;;19.70;99.90;;;;;;5052276;28;20485;-69
2022/10/08 10:12:26;;;;;;;23.83;17.85;;;19.70;99.90;;;;;;5054310;28;20053;-71
2022/10/08 10:14:59;;;;;;;22.63;16.90;;;19.80;99.90;;;;;;5053735;28;20630;-70
2022/10/08 10:17:35;;;;;;;21.85;16.10;;;19.80;99.90;;;;;;5050289;28;20500;-71
2022/10/08 10:20:04;;;;;;;;;;;19.90;99.90;;;;;;5053611;28;20045;-71
2022/10/08 10:22:39;;;;;;;22.95;15.52;;;20.00;99.90;;;;;;5051860;28;19929;-69
2022/10/08 10:25:16;;;;;;;22.40;13.55;;;20.00;99.90;;;;;;5035462;28;20115;-71
2022/10/08 10:27:50;;;;;;;14.38;11.60;;;20.10;99.90;;;;;;5052814;28;20079;-71
2022/10/08 10:30:21;;;;;;;15.00;10.90;;;20.10;99.90;;;;;;5053140;28;20048;-71
2022/10/08 10:32:54;;;;;;;17.27;11.70;;;20.10;99.90;;;;;;5052851;28;20053;-71
2022/10/08 10:35:25;;;;;;;25.33;17.83;;;20.10;99.90;;;;;;5051842;28;20497;-71
2022/10/08 10:37:58;;;;;;;17.15;13.07;;;20.10;99.90;;;;;;5053054;28;20045;-71
2022/10/08 10:40:45;;;;;;;19.05;14.50;;;20.10;99.90;;;;;;5051139;28;20052;-71
2022/10/08 10:43:31;;;;;;;15.38;12.98;;;20.30;99.90;;;;;;5046522;28;20053;-71
2022/10/08 10:46:06;;;;;;;24.13;17.35;;;20.40;99.90;;;;;;5047350;28;20041;-71
2022/10/08 10:48:34;;;;;;;24.67;18.02;;;20.60;99.90;;;;;;5051045;28;20048;-71
2022/10/08 10:51:10;;;;;;;28.90;20.00;;;20.70;99.90;;;;;;5051241;28;20045;-71
2022/10/08 10:53:50;;;;;;;25.52;22.02;;;20.90;99.90;;;;;;5050386;28;20455;-71
2022/10/08 10:56:19;;;;;;;30.00;24.15;;;20.90;99.90;;;;;;5052659;28;20047;-72
2022/10/08 10:59:21;;;;;;;24.73;17.45;;;21.00;99.90;;;;;;5052959;28;20128;-72
2022/10/08 11:01:58;;;;;;;24.67;19.15;;;21.10;99.90;;;;;;5052473;28;20033;-72
2022/10/08 11:04:38;;;;;;;23.42;18.65;;;21.20;99.90;;;;;;5052770;28;20070;-72
2022/10/08 11:07:16;;;;;;;21.88;18.38;;;21.40;99.90;;;;;;5053412;28;20064;-71
2022/10/08 11:09:50;;;;;;;26.88;16.83;;;21.50;99.90;;;;;;5051537;28;20037;-71
2022/10/08 11:12:34;;;;;;;25.50;16.55;;;21.50;99.90;;;;;;5050745;28;20049;-72
2022/10/08 11:15:11;;;;;;;22.75;16.45;;;21.60;99.90;;;;;;5052424;28;20094;-71
2022/10/08 11:17:57;;;;;;;17.83;15.18;;;21.60;99.90;;;;;;5052873;28;20041;-72
2022/10/08 11:20:38;;;;;;;21.02;14.65;;;21.60;99.90;;;;;;5051472;28;20506;-72
2022/10/08 11:23:19;;;;;;;20.05;14.82;;;21.40;99.90;;;;;;5051981;28;20056;-72
2022/10/08 11:25:52;;;;;;;25.67;19.08;;;21.30;99.90;;;;;;5051905;28;20476;-71
2022/10/08 11:28:29;;;;;;;27.23;18.60;;;21.30;99.90;;;;;;5051733;28;20076;-72
2022/10/08 11:31:08;;;;;;;24.15;19.50;;;21.40;99.90;;;;;;5055582;28;20489;-72
2022/10/08 11:33:38;;;;;;;23.52;17.67;;;21.50;99.90;;;;;;5048370;28;20060;-71
2022/10/08 11:36:20;;;;;;;22.70;15.45;;;21.60;99.90;;;;;;5051602;28;20156;-71
2022/10/08 11:38:54;;;;;;;21.40;16.60;;;21.80;99.90;;;;;;5056143;28;20094;-72
2022/10/08 11:41:27;;;;;;;22.00;16.65;;;21.90;99.90;;;;;;5056003;28;20040;-72
2022/10/08 11:43:57;;;;;;;25.00;21.73;;;21.90;99.90;;;;;;5055890;28;20481;-72
2022/10/08 11:46:29;;;;;;;22.88;16.35;;;21.90;99.90;;;;;;5045297;28;20107;-72
2022/10/08 11:49:00;;;;;;;16.45;14.35;;;21.80;99.90;;;;;;5043094;28;20099;-72
2022/10/08 11:51:37;;;;;;;21.92;15.70;;;21.70;99.90;;;;;;5055865;28;20041;-71
2022/10/08 11:54:25;;;;;;;27.92;15.50;;;21.70;99.50;;;;;;5047339;28;20141;-72
2022/10/08 11:57:11;;;;;;;17.23;13.00;;;21.80;97.90;;;;;;5041526;28;20144;-72
2022/10/08 11:59:43;;;;;;;17.58;11.80;;;21.90;95.30;;;;;;5048800;28;20078;-72
2022/10/08 12:02:29;;;;;;;19.60;13.02;;;21.90;94.10;;;;;;5047782;28;20034;-72
2022/10/08 12:05:00;;;;;;;16.98;12.32;;;22.00;94.30;;;;;;5052246;28;20492;-72
2022/10/08 12:07:34;;;;;;;12.77;10.35;;;22.00;93.90;;;;;;5044166;28;20037;-71
2022/10/08 12:10:28;;;;;;;19.50;11.98;;;22.10;92.40;;;;;;5054748;28;20037;-72
2022/10/08 12:13:21;;;;;;;15.07;9.95;;;22.00;91.50;;;;;;5050626;28;20116;-72
2022/10/08 12:15:56;;;;;;;17.70;12.57;;;22.00;91.50;;;;;;5055094;28;20037;-72
2022/10/08 12:18:41;;;;;;;13.93;10.27;;;22.10;91.80;;;;;;5053599;28;20099;-73
2022/10/08 12:21:50;;;;;;;16.45;11.25;;;22.20;92.10;;;;;;5051833;28;20033;-72
2022/10/08 12:24:59;;;;;;;15.93;10.65;;;22.20;92.70;;;;;;4994046;28;20050;-72
2022/10/08 12:27:36;;;;;;;15.98;11.43;;;22.10;92.70;;;;;;5033839;28;20107;-73
2022/10/08 12:30:09;;;;;;;21.92;14.25;;;22.00;93.20;;;;;;5035900;28;20044;-72
2022/10/08 12:32:55;;;;;;;23.90;17.23;;;22.10;93.50;;;;;;5048006;28;20484;-71
2022/10/08 12:35:26;;;;;;;39.85;17.77;;;22.20;93.40;;;;;;5036618;28;20468;-71
2022/10/08 12:38:16;;;;;;;24.85;17.00;;;22.20;93.30;;;;;;5046910;28;20119;-72
2022/10/08 12:40:50;;;;;;;23.85;15.52;;;22.20;93.30;;;;;;5054903;28;20468;-71
2022/10/08 12:43:25;;;;;;;25.80;17.65;;;22.30;93.40;;;;;;5055289;28;20131;-72
2022/10/08 12:46:01;;;;;;;34.50;21.53;;;22.40;93.60;;;;;;5055519;28;20428;-72
2022/10/08 12:48:39;;;;;;;36.85;21.25;;;22.50;93.60;;;;;;5054974;28;20796;-72
2022/10/08 12:51:18;;;;;;;31.48;19.08;;;22.70;93.60;;;;;;5053883;28;20419;-72
2022/10/08 12:53:48;;;;;;;32.15;20.75;;;22.70;93.70;;;;;;5054781;28;20064;-73
2022/10/08 12:56:18;;;;;;;41.33;23.55;;;22.60;94.20;;;;;;5055278;28;20208;-73